Time;durP1;ratioP1;P1;durP2;ratioP2;P2;SDS_P1;SDS_P2;PMS_P1;PMS_P2;Temp;Humidity;BMP_temperature;BMP_pressure;BME280_temperature;BME280_humidity;BME280_pressure;Samples;Min_cycle;Max_cycle;Signal;HPM_P1;HPM_P2
2022/07/12 00:02:56;;;;;;;3.10;1.50;;;;;;;;;;10031878;28;20131;-68
2022/07/12 00:07:53;;;;;;;2.55;1.40;;;;;;;;;;10031017;28;20494;-68
2022/07/12 00:12:50;;;;;;;4.93;2.00;;;;;;;;;;10031975;28;20043;-68
2022/07/12 00:17:47;;;;;;;5.00;1.98;;;;;;;;;;10030671;28;20213;-69
2022/07/12 00:22:43;;;;;;;3.65;1.70;;;;;;;;;;10036515;28;20126;-68
2022/07/12 00:27:40;;;;;;;4.40;2.03;;;;;;;;;;10036988;28;20043;-69
2022/07/12 00:32:36;;;;;;;3.28;1.40;;;;;;;;;;10033262;28;20139;-68
2022/07/12 00:37:33;;;;;;;6.10;1.85;;;;;;;;;;10031672;28;20047;-69
2022/07/12 00:42:29;;;;;;;3.50;1.75;;;;;;;;;;10031649;28;20826;-67
2022/07/12 00:47:31;;;;;;;4.50;2.08;;;;;;;;;;10024608;28;20052;-67
2022/07/12 00:52:27;;;;;;;3.47;2.00;;;;;;;;;;10030861;28;20052;-67
2022/07/12 00:57:24;;;;;;;3.05;1.65;;;;;;;;;;10025369;28;20044;-69
2022/07/12 01:02:20;;;;;;;4.47;1.98;;;;;;;;;;10029302;28;20055;-69
2022/07/12 01:07:17;;;;;;;7.68;2.35;;;;;;;;;;10027899;28;20054;-69
2022/07/12 01:12:14;;;;;;;4.78;2.28;;;;;;;;;;10031344;28;20055;-68
2022/07/12 01:17:11;;;;;;;5.03;2.60;;;;;;;;;;10030311;28;20075;-68
2022/07/12 01:22:09;;;;;;;4.00;2.10;;;;;;;;;;10031709;28;20098;-68
2022/07/12 01:27:06;;;;;;;4.35;2.05;;;;;;;;;;10030910;28;20087;-68
2022/07/12 01:37:19;;;;;;;5.05;2.53;;;;;;;;;;10025392;28;20593;-70
2022/07/12 01:42:15;;;;;;;4.45;2.42;;;;;;;;;;10029515;28;20147;-70
2022/07/12 01:47:12;;;;;;;4.63;2.30;;;;;;;;;;10017836;28;20048;-69
2022/07/12 01:52:09;;;;;;;4.90;2.47;;;;;;;;;;10027691;28;20095;-69
2022/07/12 01:57:07;;;;;;;4.85;2.08;;;;;;;;;;10021856;28;20178;-68
2022/07/12 02:02:03;;;;;;;3.85;1.98;;;;;;;;;;10027992;28;20139;-70
2022/07/12 02:07:00;;;;;;;4.70;2.80;;;;;;;;;;10025337;28;20055;-69
2022/07/12 02:11:57;;;;;;;5.78;2.90;;;;;;;;;;10021580;28;20534;-67
2022/07/12 02:16:53;;;;;;;6.95;3.20;;;;;;;;;;10033538;28;20060;-68
2022/07/12 02:21:50;;;;;;;4.75;2.50;;;;;;;;;;10030858;28;20043;-69
2022/07/12 02:26:46;;;;;;;6.05;2.33;;;;;;;;;;10027709;28;20076;-69
2022/07/12 02:31:42;;;;;;;4.07;2.45;;;;;;;;;;10029052;28;20078;-69
2022/07/12 02:36:39;;;;;;;5.15;2.00;;;;;;;;;;10032294;28;20421;-67
2022/07/12 02:41:35;;;;;;;6.47;2.70;;;;;;;;;;10026379;28;20075;-67
2022/07/12 02:46:31;;;;;;;9.15;2.95;;;;;;;;;;10022810;28;20522;-69
2022/07/12 02:51:28;;;;;;;5.03;2.28;;;;;;;;;;10031515;28;20047;-68
2022/07/12 02:56:25;;;;;;;4.85;2.45;;;;;;;;;;10027334;28;20567;-68
2022/07/12 03:01:21;;;;;;;5.88;2.60;;;;;;;;;;10028748;28;20051;-67
2022/07/12 03:06:17;;;;;;;7.38;3.13;;;;;;;;;;10018389;28;20119;-67
2022/07/12 03:11:14;;;;;;;6.72;3.03;;;;;;;;;;10029385;28;20497;-68
2022/07/12 03:16:10;;;;;;;4.72;2.35;;;;;;;;;;10013216;28;20048;-69
2022/07/12 03:21:07;;;;;;;4.70;2.45;;;;;;;;;;10005611;28;20077;-68
2022/07/12 03:26:03;;;;;;;4.55;2.58;;;;;;;;;;10010923;28;20459;-68
2022/07/12 03:31:01;;;;;;;5.00;2.63;;;;;;;;;;10018573;28;20532;-68
2022/07/12 03:35:58;;;;;;;9.52;4.28;;;;;;;;;;10019108;28;20809;-69
2022/07/12 03:40:55;;;;;;;5.57;2.83;;;;;;;;;;10035774;28;20043;-69
2022/07/12 03:45:51;;;;;;;7.78;3.15;;;;;;;;;;10024260;28;20047;-69
2022/07/12 03:50:49;;;;;;;7.15;3.80;;;;;;;;;;10028470;28;20052;-69
2022/07/12 03:55:45;;;;;;;6.18;3.45;;;;;;;;;;10013591;28;20114;-69
2022/07/12 04:00:42;;;;;;;5.93;3.95;;;;;;;;;;10012219;28;20048;-68
2022/07/12 04:05:39;;;;;;;6.55;4.43;;;;;;;;;;10019061;28;20104;-69
2022/07/12 04:10:35;;;;;;;5.88;3.92;;;;;;;;;;10024647;28;20071;-68
2022/07/12 04:15:32;;;;;;;6.85;3.78;;;;;;;;;;10012705;28;20568;-68
2022/07/12 04:20:28;;;;;;;7.07;3.70;;;;;;;;;;10044129;28;20044;-68
2022/07/12 04:25:25;;;;;;;6.72;3.40;;;;;;;;;;10022642;28;20569;-71
2022/07/12 04:30:21;;;;;;;6.30;3.75;;;;;;;;;;10011587;28;20083;-68
2022/07/12 04:35:17;;;;;;;6.38;4.18;;;;;;;;;;10016046;28;20083;-69
2022/07/12 04:40:14;;;;;;;7.45;4.63;;;;;;;;;;10014283;28;20470;-69
2022/07/12 04:45:10;;;;;;;7.03;4.65;;;;;;;;;;10008678;28;20071;-69
2022/07/12 04:50:07;;;;;;;9.10;5.43;;;;;;;;;;9997826;28;20143;-69
2022/07/12 04:55:06;;;;;;;9.30;5.82;;;;;;;;;;10015029;28;20108;-69
2022/07/12 05:00:04;;;;;;;7.82;5.28;;;;;;;;;;10022044;28;20048;-69
2022/07/12 05:05:00;;;;;;;7.88;5.57;;;;;;;;;;10027042;29;20541;-69
2022/07/12 05:09:57;;;;;;;10.07;6.05;;;;;;;;;;10028397;28;20094;-71
2022/07/12 05:14:53;;;;;;;8.10;5.20;;;;;;;;;;10028634;28;20063;-71
2022/07/12 05:19:49;;;;;;;7.07;5.00;;;;;;;;;;10029973;28;20596;-71
2022/07/12 05:24:46;;;;;;;6.57;4.65;;;;;;;;;;10016245;28;20123;-71
2022/07/12 05:29:42;;;;;;;5.88;2.97;;;;;;;;;;10026358;28;20067;-72
2022/07/12 05:34:38;;;;;;;4.72;2.45;;;;;;;;;;10023647;28;20076;-71
2022/07/12 05:39:35;;;;;;;5.20;2.83;;;;;;;;;;10028139;28;20048;-71
2022/07/12 05:44:38;;;;;;;6.28;2.75;;;;;;;;;;10029535;28;20059;-71
2022/07/12 05:49:34;;;;;;;3.78;2.30;;;;;;;;;;10033522;28;20114;-71
2022/07/12 05:54:30;;;;;;;3.97;2.53;;;;;;;;;;10025870;28;20147;-71
2022/07/12 05:59:29;;;;;;;4.28;2.38;;;;;;;;;;10023833;28;20095;-71
2022/07/12 06:04:25;;;;;;;5.25;2.40;;;;;;;;;;10021693;28;20570;-71
2022/07/12 06:09:21;;;;;;;4.82;1.95;;;;;;;;;;10027517;28;20510;-71
2022/07/12 06:14:18;;;;;;;4.63;1.80;;;;;;;;;;10025902;28;20067;-71
2022/07/12 06:19:14;;;;;;;3.88;1.90;;;;;;;;;;10025968;29;20044;-70
2022/07/12 06:24:10;;;;;;;7.53;2.20;;;;;;;;;;10024946;28;20110;-71
2022/07/12 06:29:06;;;;;;;3.58;1.85;;;;;;;;;;10024469;28;20103;-71
2022/07/12 06:34:03;;;;;;;3.78;1.92;;;;;;;;;;10025650;28;20103;-71
2022/07/12 06:38:59;;;;;;;4.53;2.38;;;;;;;;;;10025933;28;20506;-71
2022/07/12 06:43:55;;;;;;;3.92;2.08;;;;;;;;;;10026487;28;20083;-71
2022/07/12 06:48:52;;;;;;;5.15;2.08;;;;;;;;;;10028107;28;20466;-71
2022/07/12 06:53:48;;;;;;;4.68;2.05;;;;;;;;;;10023668;28;20151;-70
2022/07/12 06:58:44;;;;;;;3.67;1.88;;;;;;;;;;10026265;28;20048;-70
2022/07/12 07:03:41;;;;;;;4.68;2.13;;;;;;;;;;10020015;28;20103;-69
2022/07/12 07:08:37;;;;;;;3.35;1.55;;;;;;;;;;10023930;28;20108;-70
2022/07/12 07:13:34;;;;;;;3.78;1.50;;;;;;;;;;10046071;28;20134;-70
2022/07/12 07:18:38;;;;;;;3.33;1.65;;;;;;;;;;10034816;28;20041;-70
2022/07/12 07:23:34;;;;;;;3.35;1.88;;;;;;;;;;10031148;28;20036;-70
2022/07/12 07:28:30;;;;;;;3.17;1.50;;;;;;;;;;10036388;28;20047;-70
2022/07/12 07:33:42;;;;;;;3.77;1.73;;;;;;;;;;10034158;28;20054;-70
2022/07/12 07:38:39;;;;;;;4.03;1.80;;;;;;;;;;10033960;28;20561;-70
2022/07/12 07:43:35;;;;;;;3.40;1.73;;;;;;;;;;10035944;28;20549;-70
2022/07/12 07:48:31;;;;;;;4.45;1.60;;;;;;;;;;10038699;28;20103;-70
2022/07/12 07:53:28;;;;;;;3.03;1.45;;;;;;;;;;10025663;28;20604;-70
2022/07/12 07:58:24;;;;;;;4.75;1.52;;;;;;;;;;10033329;28;20462;-70
2022/07/12 08:03:21;;;;;;;4.38;1.90;;;;;;;;;;10036039;28;20048;-70
2022/07/12 08:08:18;;;;;;;3.30;1.67;;;;;;;;;;10025612;28;20565;-70
2022/07/12 08:13:15;;;;;;;4.18;1.65;;;;;;;;;;10033600;28;20052;-70
2022/07/12 08:18:11;;;;;;;4.28;1.75;;;;;;;;;;10026037;28;20490;-70
2022/07/12 08:23:08;;;;;;;5.28;1.80;;;;;;;;;;10024959;28;20058;-70
2022/07/12 08:28:04;;;;;;;4.90;1.70;;;;;;;;;;10015125;28;20072;-70
2022/07/12 08:33:00;;;;;;;3.95;1.73;;;;;;;;;;10018034;28;20068;-70
2022/07/12 08:37:57;;;;;;;4.05;1.77;;;;;;;;;;10026593;28;20051;-70
2022/07/12 08:42:56;;;;;;;3.42;1.30;;;;;;;;;;10030803;28;20063;-70
2022/07/12 08:47:52;;;;;;;3.78;1.67;;;;;;;;;;10030662;28;20502;-70
2022/07/12 08:52:53;;;;;;;3.42;1.30;;;;;;;;;;10012758;28;20485;-70
2022/07/12 08:57:50;;;;;;;3.00;1.20;;;;;;;;;;10011913;28;20063;-70
2022/07/12 09:02:50;;;;;;;2.88;1.65;;;;;;;;;;10020831;28;20050;-71
2022/07/12 09:07:48;;;;;;;4.72;1.52;;;;;;;;;;10014119;28;20048;-70
2022/07/12 09:12:46;;;;;;;3.00;1.50;;;;;;;;;;10021121;28;20110;-70
2022/07/12 09:18:03;;;;;;;2.33;1.30;;;;;;;;;;10022703;28;20060;-70
2022/07/12 09:23:02;;;;;;;5.82;1.50;;;;;;;;;;10018125;28;20051;-70
2022/07/12 09:28:02;;;;;;;3.47;1.52;;;;;;;;;;10016328;28;20048;-70
2022/07/12 09:38:14;;;;;;;4.35;1.40;;;;;;;;;;10022496;28;20071;-70
2022/07/12 09:43:12;;;;;;;2.95;1.60;;;;;;;;;;10026562;28;20048;-70
2022/07/12 09:48:11;;;;;;;3.75;1.55;;;;;;;;;;10017456;28;20187;-70
2022/07/12 09:53:09;;;;;;;2.97;1.00;;;;;;;;;;10027484;28;20371;-70
2022/07/12 09:58:07;;;;;;;6.28;1.50;;;;;;;;;;10037266;28;20048;-69
2022/07/12 10:03:04;;;;;;;3.05;1.23;;;;;;;;;;10027597;28;20086;-70
2022/07/12 10:08:02;;;;;;;4.25;1.40;;;;;;;;;;10021347;28;20486;-69
2022/07/12 10:12:58;;;;;;;7.32;2.78;;;;;;;;;;10025043;28;20036;-70
2022/07/12 10:17:56;;;;;;;2.50;0.90;;;;;;;;;;10023640;28;20071;-70
2022/07/12 10:22:54;;;;;;;4.05;1.45;;;;;;;;;;10013729;28;20043;-70
2022/07/12 10:27:50;;;;;;;1.92;0.85;;;;;;;;;;10011425;28;20110;-70
2022/07/12 10:32:48;;;;;;;2.65;1.30;;;;;;;;;;10013709;28;20055;-69
2022/07/12 10:38:03;;;;;;;3.95;1.05;;;;;;;;;;10014013;28;20135;-70
2022/07/12 10:43:03;;;;;;;2.72;0.90;;;;;;;;;;10017014;28;20056;-69
2022/07/12 10:48:04;;;;;;;2.65;0.82;;;;;;;;;;10002835;28;20494;-69
2022/07/12 10:53:18;;;;;;;2.00;0.80;;;;;;;;;;10018736;28;20466;-69
2022/07/12 10:58:30;;;;;;;3.07;1.10;;;;;;;;;;10020722;28;20065;-69
2022/07/12 11:03:40;;;;;;;2.80;1.13;;;;;;;;;;10016298;28;20119;-69
2022/07/12 11:09:07;;;;;;;1.70;0.80;;;;;;;;;;10026658;28;20554;-69
2022/07/12 11:14:03;;;;;;;2.58;0.85;;;;;;;;;;10024204;28;20110;-69
2022/07/12 11:19:00;;;;;;;3.45;1.00;;;;;;;;;;10025228;28;20138;-69
2022/07/12 11:23:56;;;;;;;4.45;0.95;;;;;;;;;;10026499;28;20048;-69
2022/07/12 11:28:57;;;;;;;2.50;1.00;;;;;;;;;;10021801;28;20047;-69
2022/07/12 11:33:53;;;;;;;2.13;0.60;;;;;;;;;;10017438;28;20072;-69
2022/07/12 11:38:49;;;;;;;2.67;0.95;;;;;;;;;;10027635;28;20114;-69
2022/07/12 11:43:46;;;;;;;2.70;1.00;;;;;;;;;;10017698;28;20142;-69
2022/07/12 11:48:42;;;;;;;5.55;0.98;;;;;;;;;;10020932;28;20084;-69
2022/07/12 11:53:40;;;;;;;1.65;0.80;;;;;;;;;;10012846;28;20518;-70
2022/07/12 11:58:39;;;;;;;1.90;0.70;;;;;;;;;;10019083;28;20068;-70
2022/07/12 12:03:45;;;;;;;3.00;0.60;;;;;;;;;;10011442;28;20048;-69
2022/07/12 12:08:42;;;;;;;1.85;0.57;;;;;;;;;;10028095;28;20130;-69
2022/07/12 12:13:38;;;;;;;2.05;0.73;;;;;;;;;;10032483;28;20047;-69
2022/07/12 12:18:38;;;;;;;2.05;0.75;;;;;;;;;;10037523;28;20051;-69
2022/07/12 12:23:36;;;;;;;2.25;0.73;;;;;;;;;;10025355;28;20040;-69
2022/07/12 12:28:46;;;;;;;2.72;0.70;;;;;;;;;;10031808;28;20086;-69
2022/07/12 12:33:53;;;;;;;3.92;0.80;;;;;;;;;;10025815;28;20544;-68
2022/07/12 12:38:50;;;;;;;1.90;0.88;;;;;;;;;;10028555;28;20564;-69
2022/07/12 12:43:47;;;;;;;1.05;0.40;;;;;;;;;;10014929;28;20116;-70
2022/07/12 12:48:50;;;;;;;1.90;0.60;;;;;;;;;;10028164;28;20050;-69
2022/07/12 12:53:54;;;;;;;1.40;0.52;;;;;;;;;;10032169;28;20480;-69
2022/07/12 12:58:51;;;;;;;1.80;0.63;;;;;;;;;;10030129;28;20445;-69
2022/07/12 13:03:47;;;;;;;1.45;0.60;;;;;;;;;;10030728;28;20549;-69
2022/07/12 13:08:44;;;;;;;1.90;0.60;;;;;;;;;;10027299;28;20059;-69
2022/07/12 13:13:40;;;;;;;1.58;0.70;;;;;;;;;;10030070;28;20103;-69
2022/07/12 13:18:36;;;;;;;2.28;0.95;;;;;;;;;;10029058;28;20052;-70
2022/07/12 13:23:33;;;;;;;1.42;0.70;;;;;;;;;;10031999;28;20052;-69
2022/07/12 13:28:31;;;;;;;2.67;0.68;;;;;;;;;;10031218;28;20095;-70
2022/07/12 13:33:27;;;;;;;2.42;0.65;;;;;;;;;;10030058;28;20044;-70
2022/07/12 13:38:25;;;;;;;1.30;0.38;;;;;;;;;;10050395;28;20048;-69
2022/07/12 13:43:22;;;;;;;1.48;0.57;;;;;;;;;;10029879;28;20040;-69
2022/07/12 13:48:18;;;;;;;1.55;0.52;;;;;;;;;;10018267;28;20070;-69
2022/07/12 13:53:15;;;;;;;2.45;0.65;;;;;;;;;;10027929;28;20083;-68
2022/07/12 13:58:13;;;;;;;3.88;1.20;;;;;;;;;;10050606;28;20147;-69
2022/07/12 14:03:09;;;;;;;2.47;0.40;;;;;;;;;;10011273;28;20111;-70
2022/07/12 14:08:06;;;;;;;1.75;0.50;;;;;;;;;;10023929;28;20044;-70
2022/07/12 14:13:02;;;;;;;1.95;0.60;;;;;;;;;;10026314;28;20200;-70
2022/07/12 14:17:59;;;;;;;2.17;0.98;;;;;;;;;;10028830;28;20086;-70
2022/07/12 14:22:56;;;;;;;1.65;0.55;;;;;;;;;;10029780;28;20480;-69
2022/07/12 14:27:52;;;;;;;0.98;0.43;;;;;;;;;;10017998;28;20067;-70
2022/07/12 14:32:48;;;;;;;1.13;0.50;;;;;;;;;;10029054;28;20142;-70
2022/07/12 14:37:49;;;;;;;1.00;0.55;;;;;;;;;;10021172;28;20043;-70
2022/07/12 14:42:46;;;;;;;1.63;0.70;;;;;;;;;;10017770;28;20096;-69
2022/07/12 14:47:42;;;;;;;2.25;0.77;;;;;;;;;;10016156;28;20514;-70
2022/07/12 14:52:38;;;;;;;2.28;0.52;;;;;;;;;;10020979;28;20139;-71
2022/07/12 14:57:35;;;;;;;1.83;0.68;;;;;;;;;;10057235;28;20698;-69
2022/07/12 15:02:31;;;;;;;0.73;0.30;;;;;;;;;;10027030;28;20532;-70
2022/07/12 15:07:28;;;;;;;0.82;0.45;;;;;;;;;;10024376;28;20043;-69
2022/07/12 15:12:24;;;;;;;1.65;0.50;;;;;;;;;;10017691;28;20071;-68
2022/07/12 15:17:21;;;;;;;2.45;0.50;;;;;;;;;;9998987;28;20084;-68
2022/07/12 15:22:17;;;;;;;2.05;0.52;;;;;;;;;;9998046;28;20051;-68
2022/07/12 15:27:14;;;;;;;3.17;0.57;;;;;;;;;;9999241;28;20048;-68
2022/07/12 15:32:12;;;;;;;2.53;0.70;;;;;;;;;;10013567;28;20068;-70
2022/07/12 15:37:08;;;;;;;2.05;0.60;;;;;;;;;;10012868;28;20051;-69
2022/07/12 15:42:05;;;;;;;2.17;0.60;;;;;;;;;;10018137;28;20075;-68
2022/07/12 15:47:01;;;;;;;2.63;0.68;;;;;;;;;;10023133;28;20047;-69
2022/07/12 15:57:13;;;;;;;0.90;0.45;;;;;;;;;;10015647;28;20831;-69
2022/07/12 16:02:09;;;;;;;1.40;0.60;;;;;;;;;;10002514;28;20048;-69
2022/07/12 16:07:06;;;;;;;2.33;0.65;;;;;;;;;;10000266;28;20063;-69
2022/07/12 16:12:02;;;;;;;2.40;1.10;;;;;;;;;;10007937;28;20499;-69
2022/07/12 16:16:59;;;;;;;4.05;1.20;;;;;;;;;;10010516;28;20040;-69
2022/07/12 16:21:56;;;;;;;2.67;1.65;;;;;;;;;;10008551;28;20059;-69
2022/07/12 16:26:54;;;;;;;5.28;1.90;;;;;;;;;;10005149;28;20048;-69
2022/07/12 16:31:53;;;;;;;2.60;1.20;;;;;;;;;;10000277;28;20130;-69
2022/07/12 16:37:08;;;;;;;2.30;1.08;;;;;;;;;;10003420;28;20581;-70
2022/07/12 16:42:06;;;;;;;3.35;1.92;;;;;;;;;;10002024;28;20063;-69
2022/07/12 16:47:02;;;;;;;4.07;2.42;;;;;;;;;;10006899;28;20048;-69
2022/07/12 16:51:59;;;;;;;4.50;1.65;;;;;;;;;;10008750;28;20135;-69
2022/07/12 16:56:56;;;;;;;2.65;1.50;;;;;;;;;;10021485;28;20091;-68
2022/07/12 17:01:52;;;;;;;2.65;1.45;;;;;;;;;;10008883;28;20486;-68
2022/07/12 17:06:49;;;;;;;4.85;3.05;;;;;;;;;;10008578;28;20059;-68
2022/07/12 17:11:50;;;;;;;4.03;1.63;;;;;;;;;;10013234;28;20139;-68
2022/07/12 17:16:47;;;;;;;3.70;1.80;;;;;;;;;;10014745;28;20475;-68
2022/07/12 17:21:44;;;;;;;3.75;2.30;;;;;;;;;;10015400;28;20125;-68
2022/07/12 17:26:41;;;;;;;3.28;1.80;;;;;;;;;;9998375;28;20164;-68
2022/07/12 17:31:37;;;;;;;2.72;1.45;;;;;;;;;;10011953;28;20434;-67
2022/07/12 17:36:34;;;;;;;2.88;1.40;;;;;;;;;;10008343;28;20044;-67
2022/07/12 17:41:30;;;;;;;3.67;1.40;;;;;;;;;;10006084;28;20115;-66
2022/07/12 17:46:28;;;;;;;2.95;1.40;;;;;;;;;;10000290;28;20063;-67
2022/07/12 17:51:26;;;;;;;3.95;1.80;;;;;;;;;;9999695;28;20463;-67
2022/07/12 17:56:22;;;;;;;3.97;1.70;;;;;;;;;;10008213;28;20131;-67
2022/07/12 18:01:20;;;;;;;2.85;1.20;;;;;;;;;;10003886;28;20051;-68
2022/07/12 18:06:17;;;;;;;4.78;2.50;;;;;;;;;;10029753;28;20897;-67
2022/07/12 18:16:28;;;;;;;3.30;1.85;;;;;;;;;;10007064;28;20159;-68
2022/07/12 18:21:25;;;;;;;4.45;1.58;;;;;;;;;;10007753;28;20126;-67
2022/07/12 18:26:21;;;;;;;2.20;0.80;;;;;;;;;;10013269;28;20040;-67
2022/07/12 18:31:18;;;;;;;2.00;0.85;;;;;;;;;;10015000;28;20048;-67
2022/07/12 18:36:14;;;;;;;4.60;2.08;;;;;;;;;;10017353;28;20131;-68
2022/07/12 18:41:11;;;;;;;2.97;1.20;;;;;;;;;;10021890;28;20654;-67
2022/07/12 18:46:07;;;;;;;2.92;1.40;;;;;;;;;;10015668;28;20103;-68
2022/07/12 18:51:04;;;;;;;3.70;1.60;;;;;;;;;;10023924;28;20048;-68
2022/07/12 18:56:00;;;;;;;3.97;1.58;;;;;;;;;;10018093;28;20079;-67
2022/07/12 19:00:57;;;;;;;3.92;1.90;;;;;;;;;;10029239;28;20134;-68
2022/07/12 19:05:53;;;;;;;3.90;1.65;;;;;;;;;;10020291;28;20050;-68
2022/07/12 19:10:49;;;;;;;6.18;2.97;;;;;;;;;;10029406;28;20071;-68
2022/07/12 19:15:50;;;;;;;5.68;2.90;;;;;;;;;;10032843;28;20044;-68
2022/07/12 19:20:46;;;;;;;6.82;3.30;;;;;;;;;;10026411;28;20599;-68
2022/07/12 19:25:43;;;;;;;6.47;2.72;;;;;;;;;;10030735;28;20059;-67
2022/07/12 19:30:39;;;;;;;3.05;1.23;;;;;;;;;;10034353;28;20083;-67
2022/07/12 19:35:37;;;;;;;2.92;1.25;;;;;;;;;;10034404;28;20055;-67
2022/07/12 19:40:33;;;;;;;2.15;1.15;;;;;;;;;;10029251;28;20094;-67
2022/07/12 19:45:30;;;;;;;2.30;0.98;;;;;;;;;;10033773;28;20047;-67
2022/07/12 19:50:26;;;;;;;3.92;1.02;;;;;;;;;;10028402;28;20071;-67
2022/07/12 19:55:23;;;;;;;3.05;1.30;;;;;;;;;;10030629;28;20048;-67
2022/07/12 20:00:19;;;;;;;2.53;1.02;;;;;;;;;;10032248;28;20130;-69
2022/07/12 20:05:16;;;;;;;3.45;1.63;;;;;;;;;;10022568;28;20441;-69
2022/07/12 20:10:12;;;;;;;2.00;1.05;;;;;;;;;;10013255;28;20102;-69
2022/07/12 20:15:09;;;;;;;3.50;0.93;;;;;;;;;;10027838;28;20090;-68
2022/07/12 20:20:05;;;;;;;3.67;1.55;;;;;;;;;;10020621;28;20138;-72
2022/07/12 20:25:04;;;;;;;3.28;1.38;;;;;;;;;;10031122;28;20047;-70
2022/07/12 20:30:00;;;;;;;3.25;1.00;;;;;;;;;;10023080;29;20110;-69
2022/07/12 20:34:57;;;;;;;4.70;1.10;;;;;;;;;;10026060;29;20103;-69
2022/07/12 20:39:53;;;;;;;2.78;1.13;;;;;;;;;;10024554;28;20135;-65
2022/07/12 20:44:49;;;;;;;3.22;1.13;;;;;;;;;;10025699;28;20131;-65
2022/07/12 20:49:45;;;;;;;3.80;1.23;;;;;;;;;;10027435;28;20143;-67
2022/07/12 20:54:42;;;;;;;3.78;1.70;;;;;;;;;;10034356;28;20572;-68
2022/07/12 20:59:38;;;;;;;4.30;1.80;;;;;;;;;;10033292;28;20170;-67
2022/07/12 21:04:34;;;;;;;3.25;1.48;;;;;;;;;;10029171;28;20043;-68
2022/07/12 21:09:31;;;;;;;6.07;1.80;;;;;;;;;;10031814;28;20139;-68
2022/07/12 21:14:27;;;;;;;6.28;2.13;;;;;;;;;;10024479;28;20581;-67
2022/07/12 21:19:24;;;;;;;3.83;1.80;;;;;;;;;;10025579;28;20082;-69
2022/07/12 21:24:20;;;;;;;4.72;2.13;;;;;;;;;;10032669;28;20498;-69
2022/07/12 21:29:16;;;;;;;3.80;1.70;;;;;;;;;;10027461;28;20514;-69
2022/07/12 21:34:13;;;;;;;3.78;2.10;;;;;;;;;;10028902;28;20115;-67
2022/07/12 21:39:09;;;;;;;4.43;2.00;;;;;;;;;;10033747;28;20076;-66
2022/07/12 21:44:05;;;;;;;4.38;2.00;;;;;;;;;;10026453;28;20167;-67
2022/07/12 21:49:02;;;;;;;4.70;2.20;;;;;;;;;;10027490;28;20095;-67
2022/07/12 21:53:58;;;;;;;4.57;1.73;;;;;;;;;;10027599;28;20044;-67
2022/07/12 21:58:54;;;;;;;3.97;2.05;;;;;;;;;;10031929;28;20126;-68
2022/07/12 22:03:51;;;;;;;6.38;2.42;;;;;;;;;;10029999;28;20134;-68
2022/07/12 22:08:49;;;;;;;4.70;2.05;;;;;;;;;;10031707;28;20095;-68
2022/07/12 22:13:45;;;;;;;4.13;1.88;;;;;;;;;;10025109;28;20510;-68
2022/07/12 22:18:41;;;;;;;4.63;2.40;;;;;;;;;;10029435;28;20067;-67
2022/07/12 22:23:38;;;;;;;6.45;2.50;;;;;;;;;;10025367;28;20039;-67
2022/07/12 22:28:34;;;;;;;6.05;2.35;;;;;;;;;;10028415;28;20052;-67
2022/07/12 22:33:31;;;;;;;4.55;2.25;;;;;;;;;;10032249;28;20048;-70
2022/07/12 22:38:27;;;;;;;7.07;3.03;;;;;;;;;;10023020;28;20043;-67
2022/07/12 22:43:24;;;;;;;6.22;2.90;;;;;;;;;;10027596;28;20667;-67
2022/07/12 22:48:20;;;;;;;6.47;2.85;;;;;;;;;;10028176;28;20095;-67
2022/07/12 22:53:16;;;;;;;5.43;2.22;;;;;;;;;;10029362;28;20510;-68
2022/07/12 22:58:13;;;;;;;4.65;2.60;;;;;;;;;;10021932;28;20047;-67
2022/07/12 23:03:09;;;;;;;7.22;2.20;;;;;;;;;;10027138;28;20154;-65
2022/07/12 23:08:05;;;;;;;5.47;2.03;;;;;;;;;;10027017;28;20043;-65
2022/07/12 23:13:02;;;;;;;5.30;2.08;;;;;;;;;;10043953;28;20081;-65
2022/07/12 23:17:58;;;;;;;5.25;1.88;;;;;;;;;;10022667;28;20126;-68
2022/07/12 23:22:54;;;;;;;3.58;2.05;;;;;;;;;;10030593;28;20176;-65
2022/07/12 23:27:51;;;;;;;6.07;2.10;;;;;;;;;;10027824;28;20623;-65
2022/07/12 23:32:47;;;;;;;5.03;2.08;;;;;;;;;;10027696;28;20437;-67
2022/07/12 23:37:44;;;;;;;5.85;2.00;;;;;;;;;;10019188;28;20108;-66
2022/07/12 23:42:40;;;;;;;8.48;3.00;;;;;;;;;;10015779;28;20111;-66
2022/07/12 23:47:36;;;;;;;8.32;3.67;;;;;;;;;;10029940;28;20067;-65
2022/07/12 23:52:33;;;;;;;9.50;3.47;;;;;;;;;;10029242;28;20055;-67
2022/07/12 23:57:29;;;;;;;8.32;3.00;;;;;;;;;;10033518;28;20060;-67
